createdAt,value
2018-02-14T00:00:35.769Z,97704.58
2018-02-14T00:01:38.730Z,97707.16
2018-02-14T00:02:41.699Z,97709.59
2018-02-14T00:03:44.929Z,97710.81
2018-02-14T00:04:47.875Z,97710.85
2018-02-14T00:05:50.827Z,97707.64
2018-02-14T00:06:53.756Z,97712.97
2018-02-14T00:07:56.721Z,97712.16
2018-02-14T00:08:59.675Z,97705.80
2018-02-14T00:10:03.128Z,97708.08
2018-02-14T00:11:06.089Z,97706.13
2018-02-14T00:12:09.620Z,97705.92
2018-02-14T00:13:12.581Z,97709.06
2018-02-14T00:14:15.511Z,97708.88
2018-02-14T00:15:18.487Z,97707.17
2018-02-14T00:16:21.741Z,97706.10
2018-02-14T00:17:24.847Z,97706.94
2018-02-14T00:18:27.861Z,97707.30
2018-02-14T00:19:30.872Z,97706.70
2018-02-14T00:20:33.806Z,97710.02
2018-02-14T00:21:36.750Z,97713.59
2018-02-14T00:22:39.973Z,97707.93
2018-02-14T00:23:42.991Z,97702.44
2018-02-14T00:24:45.937Z,97712.49
2018-02-14T00:25:48.864Z,97712.18
2018-02-14T00:26:51.839Z,97706.87
2018-02-14T00:27:55.469Z,97710.85
2018-02-14T00:28:58.708Z,97708.91
2018-02-14T00:30:01.669Z,97709.05
2018-02-14T00:31:04.802Z,97714.36
2018-02-14T00:32:07.707Z,97710.00
2018-02-14T00:33:10.591Z,97711.81
2018-02-14T00:34:13.509Z,97711.33
2018-02-14T00:35:16.713Z,97711.16
2018-02-14T00:36:19.586Z,97709.86
2018-02-14T00:37:22.507Z,97709.09
2018-02-14T00:38:25.483Z,97709.43
2018-02-14T00:39:28.451Z,97710.52
2018-02-14T00:40:31.454Z,97710.95
2018-02-14T00:41:34.674Z,97709.01
2018-02-14T00:42:37.636Z,97716.48
2018-02-14T00:43:40.551Z,97716.53
2018-02-14T00:44:43.551Z,97717.73
2018-02-14T00:45:46.511Z,97720.97
2018-02-14T00:46:49.457Z,97718.86
2018-02-14T00:47:52.696Z,97720.03
2018-02-14T00:48:55.633Z,97716.95
2018-02-14T00:49:58.591Z,97722.00
2018-02-14T00:51:01.554Z,97723.09
2018-02-14T00:52:04.616Z,97724.94
2018-02-14T00:53:07.567Z,97727.34
2018-02-14T00:54:10.823Z,97729.68
2018-02-14T00:55:13.874Z,97730.20
2018-02-14T00:56:16.810Z,97725.89
2018-02-14T00:57:19.914Z,97724.34
2018-02-14T00:58:22.869Z,97730.44
2018-02-14T00:59:25.819Z,97733.22
2018-02-14T01:00:29.264Z,97730.31
2018-02-14T01:01:32.273Z,97729.27
2018-02-14T01:02:35.205Z,97734.25
2018-02-14T01:03:38.160Z,97731.69
2018-02-14T01:04:41.133Z,97742.46
2018-02-14T01:05:44.096Z,97738.22
2018-02-14T01:06:47.464Z,97737.70
2018-02-14T01:07:50.419Z,97737.61
2018-02-14T01:08:53.405Z,97740.59
2018-02-14T01:09:56.355Z,97738.39
2018-02-14T01:10:59.314Z,97740.73
2018-02-14T01:12:02.283Z,97740.30
2018-02-14T01:13:05.502Z,97736.98
2018-02-14T01:14:08.447Z,97741.72
2018-02-14T01:15:11.375Z,97742.15
2018-02-14T01:16:14.310Z,97739.42
2018-02-14T01:17:17.226Z,97740.03
2018-02-14T01:18:20.080Z,97739.97
2018-02-14T01:19:23.374Z,97741.02
2018-02-14T01:20:30.142Z,97744.97
2018-02-14T01:21:33.049Z,97745.56
2018-02-14T01:22:35.933Z,97742.98
2018-02-14T01:23:39.483Z,97747.11
2018-02-14T01:24:42.426Z,97749.84
2018-02-14T01:25:45.593Z,97744.32
2018-02-14T01:26:48.471Z,97745.27
2018-02-14T01:27:51.372Z,97741.75
2018-02-14T01:28:54.240Z,97750.16
2018-02-14T01:29:57.238Z,97750.09
2018-02-14T01:31:00.164Z,97748.02
2018-02-14T01:32:03.444Z,97748.94
2018-02-14T01:33:06.389Z,97748.34
2018-02-14T01:34:09.327Z,97758.24
2018-02-14T01:35:12.274Z,97747.19
2018-02-14T01:36:15.211Z,97749.69
2018-02-14T01:37:18.156Z,97749.02
2018-02-14T01:38:21.422Z,97749.42
2018-02-14T01:39:24.394Z,97749.32
2018-02-14T01:40:27.352Z,97749.66
2018-02-14T01:41:30.329Z,97755.28
2018-02-14T01:42:33.295Z,97754.92
2018-02-14T01:43:36.312Z,97757.73
2018-02-14T01:44:39.542Z,97758.79
2018-02-14T01:45:42.533Z,97753.00
2018-02-14T01:46:45.452Z,97759.16
2018-02-14T01:47:48.450Z,97760.55
2018-02-14T01:48:51.393Z,97765.95
2018-02-14T01:49:54.342Z,97765.11
2018-02-14T01:50:57.648Z,97763.61
2018-02-14T01:52:00.600Z,97764.34
2018-02-14T01:53:03.573Z,97766.99
2018-02-14T01:54:06.524Z,97764.27
2018-02-14T01:55:09.484Z,97761.10
2018-02-14T01:56:12.441Z,97770.34
2018-02-14T01:57:15.724Z,97765.01
2018-02-14T01:58:18.680Z,97764.23
2018-02-14T01:59:21.596Z,97770.09
2018-02-14T02:00:24.542Z,97771.03
2018-02-14T02:01:27.484Z,97770.52
2018-02-14T02:02:30.448Z,97772.17
2018-02-14T02:03:33.692Z,97765.33
2018-02-14T02:04:36.802Z,97776.58
2018-02-14T02:05:39.781Z,97772.76
2018-02-14T02:06:42.756Z,97773.78
2018-02-14T02:07:45.704Z,97771.55
2018-02-14T02:08:48.679Z,97766.92
2018-02-14T02:09:51.904Z,97772.38
2018-02-14T02:10:54.818Z,97770.52
2018-02-14T02:11:57.751Z,97768.28
2018-02-14T02:13:00.756Z,97766.99
2018-02-14T02:14:03.713Z,97771.34
2018-02-14T02:15:06.665Z,97766.39
2018-02-14T02:16:10.012Z,97766.10
2018-02-14T02:17:12.958Z,97767.34
2018-02-14T02:18:15.978Z,97770.38
2018-02-14T02:19:19.175Z,97771.91
2018-02-14T02:20:22.337Z,97770.84
2018-02-14T02:21:25.270Z,97774.02
2018-02-14T02:22:28.525Z,97772.12
2018-02-14T02:23:31.467Z,97769.67
2018-02-14T02:24:34.389Z,97774.56
2018-02-14T02:25:37.343Z,97767.34
2018-02-14T02:26:40.243Z,97778.64
2018-02-14T02:27:43.159Z,97769.84
2018-02-14T02:28:46.390Z,97776.84
2018-02-14T02:29:49.251Z,97766.66
2018-02-14T02:30:54.788Z,97769.45
2018-02-14T02:31:57.769Z,97771.06
2018-02-14T02:33:00.714Z,97771.91
2018-02-14T02:34:03.651Z,97769.41
2018-02-14T02:35:06.840Z,97769.63
2018-02-14T02:36:09.781Z,97770.50
2018-02-14T02:37:12.680Z,97772.27
2018-02-14T02:38:15.589Z,97773.59
2018-02-14T02:39:18.507Z,97775.09
2018-02-14T02:40:21.445Z,97768.09
2018-02-14T02:41:24.713Z,97767.29
2018-02-14T02:42:27.634Z,97771.65
2018-02-14T02:43:30.522Z,97771.80
2018-02-14T02:44:33.425Z,97764.42
2018-02-14T02:45:36.339Z,97763.02
2018-02-14T02:46:39.277Z,97768.25
2018-02-14T02:47:42.198Z,97757.56
2018-02-14T02:48:45.124Z,97763.84
2018-02-14T02:49:48.041Z,97760.16
2018-02-14T02:50:50.952Z,97770.71
2018-02-14T02:51:53.838Z,97770.27
2018-02-14T02:52:56.994Z,97761.41
2018-02-14T02:53:59.860Z,97768.65
2018-02-14T02:55:02.748Z,97769.59
2018-02-14T02:56:05.651Z,97764.85
2018-02-14T02:57:08.618Z,97766.13
2018-02-14T02:58:11.523Z,97771.98
2018-02-14T02:59:14.731Z,97759.24
2018-02-14T03:00:17.659Z,97769.48
2018-02-14T03:01:20.566Z,97767.89
2018-02-14T03:02:23.616Z,97767.45
2018-02-14T03:03:26.452Z,97764.98
2018-02-14T03:04:29.302Z,97764.50
2018-02-14T03:05:32.412Z,97767.56
2018-02-14T03:06:35.299Z,97768.63
2018-02-14T03:07:38.156Z,97773.52
2018-02-14T03:08:41.085Z,97771.06
2018-02-14T03:09:43.941Z,97765.31
2018-02-14T03:10:46.894Z,97761.89
2018-02-14T03:11:50.116Z,97767.11
2018-02-14T03:12:53.034Z,97769.25
2018-02-14T03:13:55.952Z,97769.86
2018-02-14T03:14:58.876Z,97763.35
2018-02-14T03:16:01.791Z,97768.08
2018-02-14T03:17:04.722Z,97770.45
2018-02-14T03:18:07.932Z,97767.17
2018-02-14T03:19:10.853Z,97772.42
2018-02-14T03:20:13.755Z,97771.47
2018-02-14T03:21:16.684Z,97772.84
2018-02-14T03:22:19.623Z,97780.41
2018-02-14T03:23:22.535Z,97779.30
2018-02-14T03:24:25.759Z,97778.91
2018-02-14T03:25:28.690Z,97773.03
2018-02-14T03:26:31.606Z,97777.93
2018-02-14T03:27:34.532Z,97775.33
2018-02-14T03:28:37.637Z,97783.38
2018-02-14T03:29:40.494Z,97777.63
2018-02-14T03:30:43.613Z,97780.93
2018-02-14T03:31:46.466Z,97778.05
2018-02-14T03:32:49.391Z,97779.38
2018-02-14T03:33:52.310Z,97784.30
2018-02-14T03:34:55.255Z,97785.84
2018-02-14T03:35:58.084Z,97782.34
2018-02-14T03:37:01.194Z,97782.28
2018-02-14T03:38:04.097Z,97782.72
2018-02-14T03:39:07.118Z,97784.41
2018-02-14T03:40:10.021Z,97787.34
2018-02-14T03:41:12.940Z,97792.48
2018-02-14T03:42:15.855Z,97790.81
2018-02-14T03:43:19.176Z,97791.59
2018-02-14T03:44:22.099Z,97797.16
2018-02-14T03:45:24.932Z,97796.89
2018-02-14T03:46:27.765Z,97789.25
2018-02-14T03:47:30.529Z,97795.27
2018-02-14T03:48:33.312Z,97796.55
2018-02-14T03:49:36.354Z,97794.94
2018-02-14T03:50:39.240Z,97797.71
2018-02-14T03:51:42.099Z,97797.50
2018-02-14T03:52:44.977Z,97796.70
2018-02-14T03:53:47.856Z,97802.94
2018-02-14T03:54:50.724Z,97801.67
2018-02-14T03:55:53.881Z,97809.84
2018-02-14T03:56:56.789Z,97810.36
2018-02-14T03:57:59.746Z,97806.22
2018-02-14T03:59:02.613Z,97812.36
2018-02-14T04:00:05.504Z,97817.44
2018-02-14T04:01:08.700Z,97818.78
2018-02-14T04:02:11.860Z,97812.62
2018-02-14T04:03:14.732Z,97819.53
2018-02-14T04:04:17.571Z,97817.98
2018-02-14T04:05:20.528Z,97821.78
2018-02-14T04:06:23.433Z,97825.11
2018-02-14T04:07:26.296Z,97827.20
2018-02-14T04:08:30.206Z,97831.03
2018-02-14T04:09:33.141Z,97831.22
2018-02-14T04:10:36.059Z,97836.45
2018-02-14T04:11:38.972Z,97837.37
2018-02-14T04:12:41.916Z,97835.59
2018-02-14T04:13:44.838Z,97837.37
2018-02-14T04:14:48.083Z,97841.14
2018-02-14T04:15:50.998Z,97841.88
2018-02-14T04:16:53.919Z,97842.80
2018-02-14T04:17:56.819Z,97847.42
2018-02-14T04:18:59.746Z,97848.47
2018-02-14T04:20:02.680Z,97848.17
2018-02-14T04:21:05.922Z,97853.69
2018-02-14T04:22:08.884Z,97850.81
2018-02-14T04:23:11.968Z,97859.70
2018-02-14T04:24:15.066Z,97855.22
2018-02-14T04:25:18.029Z,97853.94
2018-02-14T04:26:21.040Z,97859.78
2018-02-14T04:27:24.223Z,97855.93
2018-02-14T04:28:27.243Z,97856.11
2018-02-14T04:29:30.171Z,97861.05
2018-02-14T04:30:33.131Z,97860.77
2018-02-14T04:31:36.031Z,97865.05
2018-02-14T04:32:38.938Z,97861.22
2018-02-14T04:33:42.118Z,97869.15
2018-02-14T04:34:44.976Z,97863.26
2018-02-14T04:35:47.910Z,97862.62
2018-02-14T04:36:50.860Z,97864.81
2018-02-14T04:37:53.782Z,97864.39
2018-02-14T04:38:56.718Z,97862.11
2018-02-14T04:39:59.950Z,97865.92
2018-02-14T04:41:02.879Z,97867.52
2018-02-14T04:42:05.807Z,97873.06
2018-02-14T04:43:08.739Z,97863.80
2018-02-14T04:44:11.686Z,97873.19
2018-02-14T04:45:14.593Z,97875.23
2018-02-14T04:46:17.797Z,97875.02
2018-02-14T04:47:20.703Z,97875.26
2018-02-14T04:48:23.625Z,97878.48
2018-02-14T04:49:26.561Z,97880.55
2018-02-14T04:50:29.510Z,97886.59
2018-02-14T04:51:32.456Z,97885.79
2018-02-14T04:52:35.694Z,97883.12
2018-02-14T04:53:38.626Z,97885.08
2018-02-14T04:54:41.591Z,97881.98
2018-02-14T04:55:44.502Z,97886.86
2018-02-14T04:56:47.446Z,97892.88
2018-02-14T04:57:50.371Z,97883.67
2018-02-14T04:58:53.571Z,97884.94
2018-02-14T04:59:56.491Z,97889.06
2018-02-14T05:00:59.420Z,97888.78
2018-02-14T05:02:02.372Z,97891.45
2018-02-14T05:03:05.299Z,97889.63
2018-02-14T05:04:08.366Z,97891.64
2018-02-14T05:05:11.591Z,97892.63
2018-02-14T05:06:14.524Z,97894.52
2018-02-14T05:07:17.521Z,97893.20
2018-02-14T05:08:20.356Z,97892.33
2018-02-14T05:09:23.184Z,97893.09
2018-02-14T05:10:26.335Z,97903.36
2018-02-14T05:11:29.138Z,97891.90
2018-02-14T05:12:32.057Z,97891.67
2018-02-14T05:13:34.947Z,97895.72
2018-02-14T05:14:37.812Z,97896.91
2018-02-14T05:15:40.717Z,97904.30
2018-02-14T05:16:43.866Z,97898.48
2018-02-14T05:17:46.736Z,97902.73
2018-02-14T05:18:49.613Z,97903.06
2018-02-14T05:19:52.504Z,97908.41
2018-02-14T05:20:55.390Z,97909.06
2018-02-14T05:21:58.582Z,97904.13
2018-02-14T05:23:01.889Z,97902.98
2018-02-14T05:24:04.839Z,97909.03
2018-02-14T05:25:07.773Z,97905.05
2018-02-14T05:26:10.725Z,97911.86
2018-02-14T05:27:13.691Z,97912.34
2018-02-14T05:28:16.586Z,97914.39
2018-02-14T05:29:19.833Z,97911.38
2018-02-14T05:30:22.752Z,97910.71
2018-02-14T05:31:25.651Z,97915.67
2018-02-14T05:32:28.571Z,97919.55
2018-02-14T05:33:31.483Z,97915.41
2018-02-14T05:34:34.453Z,97919.16
2018-02-14T05:35:38.257Z,97917.70
2018-02-14T05:36:41.240Z,97919.89
2018-02-14T05:37:44.125Z,97911.85
2018-02-14T05:38:46.996Z,97918.05
2018-02-14T05:39:49.891Z,97914.66
2018-02-14T05:40:52.776Z,97910.76
2018-02-14T05:41:55.976Z,97912.16
2018-02-14T05:42:58.888Z,97907.95
2018-02-14T05:44:01.812Z,97915.13
2018-02-14T05:45:04.750Z,97913.78
2018-02-14T05:46:07.634Z,97915.71
2018-02-14T05:47:10.463Z,97914.05
2018-02-14T05:48:14.187Z,97917.00
2018-02-14T05:49:17.013Z,97916.02
2018-02-14T05:50:19.848Z,97925.19
2018-02-14T05:51:22.660Z,97917.23
2018-02-14T05:52:25.519Z,97925.11
2018-02-14T05:53:28.375Z,97926.78
2018-02-14T05:54:31.479Z,97927.46
2018-02-14T05:55:34.332Z,97933.17
2018-02-14T05:56:37.152Z,97930.05
2018-02-14T05:57:40.087Z,97928.63
2018-02-14T05:58:42.906Z,97928.37
2018-02-14T05:59:46.053Z,97932.27
2018-02-14T06:00:49.156Z,97930.64
2018-02-14T06:01:51.999Z,97933.42
2018-02-14T06:02:54.820Z,97935.33
2018-02-14T06:03:57.751Z,97933.05
2018-02-14T06:05:00.698Z,97937.36
2018-02-14T06:06:03.661Z,97941.92
2018-02-14T06:07:06.870Z,97934.47
2018-02-14T06:08:09.872Z,97940.33
2018-02-14T06:09:12.906Z,97938.45
2018-02-14T06:10:15.966Z,97939.78
2018-02-14T06:11:18.912Z,97944.79
2018-02-14T06:12:21.938Z,97946.78
2018-02-14T06:13:25.297Z,97947.16
2018-02-14T06:14:28.279Z,97955.60
2018-02-14T06:15:31.238Z,97953.48
2018-02-14T06:16:34.230Z,97956.23
2018-02-14T06:17:37.271Z,97953.66
2018-02-14T06:18:40.275Z,97948.12
2018-02-14T06:19:43.557Z,97956.41
2018-02-14T06:20:47.174Z,97955.69
2018-02-14T06:21:50.123Z,97956.97
2018-02-14T06:22:53.078Z,97953.83
2018-02-14T06:23:55.998Z,97950.77
2018-02-14T06:24:58.942Z,97957.25
2018-02-14T06:26:02.237Z,97954.62
2018-02-14T06:27:05.238Z,97961.67
2018-02-14T06:28:08.210Z,97956.73
2018-02-14T06:29:11.151Z,97958.61
2018-02-14T06:30:14.102Z,97961.19
2018-02-14T06:31:17.039Z,97960.71
2018-02-14T06:32:20.250Z,97966.20
2018-02-14T06:33:23.186Z,97963.11
2018-02-14T06:34:26.162Z,97966.76
2018-02-14T06:35:29.145Z,97967.76
2018-02-14T06:36:32.087Z,97969.62
2018-02-14T06:37:35.792Z,97966.34
2018-02-14T06:38:38.998Z,97976.77
2018-02-14T06:39:41.891Z,97972.02
2018-02-14T06:40:44.834Z,97967.46
2018-02-14T06:41:47.803Z,97969.11
2018-02-14T06:42:50.635Z,97964.93
2018-02-14T06:43:53.550Z,97968.08
2018-02-14T06:44:56.473Z,97960.94
2018-02-14T06:45:59.407Z,97965.57
2018-02-14T06:47:02.267Z,97969.72
2018-02-14T06:48:05.237Z,97968.08
2018-02-14T06:49:08.233Z,97965.94
2018-02-14T06:50:11.525Z,97969.62
2018-02-14T06:51:15.524Z,97974.94
2018-02-14T06:52:18.454Z,97977.46
2018-02-14T06:53:21.430Z,97979.45
2018-02-14T06:54:24.363Z,97977.23
2018-02-14T06:55:27.338Z,97972.50
2018-02-14T06:56:30.591Z,97971.47
2018-02-14T06:57:33.534Z,97969.12
2018-02-14T06:58:36.585Z,97971.30
2018-02-14T06:59:39.544Z,97968.55
2018-02-14T07:00:42.487Z,97973.48
2018-02-14T07:01:45.412Z,97974.59
2018-02-14T07:02:48.637Z,97972.24
2018-02-14T07:03:51.577Z,97981.34
2018-02-14T07:04:54.531Z,97983.27
2018-02-14T07:05:57.544Z,97979.06
2018-02-14T07:07:00.542Z,97989.44
2018-02-14T07:08:03.516Z,97985.94
2018-02-14T07:09:06.726Z,97983.60
2018-02-14T07:10:09.649Z,97981.78
2018-02-14T07:11:12.627Z,97984.67
2018-02-14T07:12:15.602Z,97987.03
2018-02-14T07:13:18.524Z,97983.62
2018-02-14T07:14:21.670Z,97991.88
2018-02-14T07:15:24.917Z,97992.23
2018-02-14T07:16:27.881Z,97988.86
2018-02-14T07:17:30.793Z,97990.64
2018-02-14T07:18:33.721Z,97993.31
2018-02-14T07:19:36.673Z,97993.39
2018-02-14T07:20:39.610Z,97992.67
2018-02-14T07:21:42.839Z,97998.93
2018-02-14T07:22:45.705Z,97994.20
2018-02-14T07:23:48.758Z,97991.23
2018-02-14T07:24:51.828Z,97990.67
2018-02-14T07:25:54.757Z,97994.88
2018-02-14T07:26:57.741Z,97999.39
2018-02-14T07:28:01.085Z,97999.62
2018-02-14T07:29:04.037Z,97996.48
2018-02-14T07:30:06.992Z,97994.66
2018-02-14T07:31:09.917Z,97993.52
2018-02-14T07:32:12.859Z,97997.66
2018-02-14T07:33:15.770Z,97994.26
2018-02-14T07:34:18.988Z,97997.07
2018-02-14T07:35:21.981Z,97998.95
2018-02-14T07:36:24.956Z,98002.04
2018-02-14T07:37:28.212Z,97996.67
2018-02-14T07:38:31.203Z,98000.89
2018-02-14T07:39:34.099Z,97997.68
2018-02-14T07:40:37.411Z,97997.19
2018-02-14T07:41:40.358Z,97996.31
2018-02-14T07:42:43.282Z,97992.41
2018-02-14T07:43:46.153Z,97994.23
2018-02-14T07:44:49.092Z,97993.47
2018-02-14T07:45:52.109Z,97998.73
2018-02-14T07:46:55.549Z,97998.56
2018-02-14T07:47:58.477Z,97998.84
2018-02-14T07:49:01.476Z,98004.27
2018-02-14T07:50:04.435Z,98000.94
2018-02-14T07:51:07.379Z,97997.58
2018-02-14T07:52:10.244Z,97996.08
2018-02-14T07:53:13.421Z,97997.89
2018-02-14T07:54:16.328Z,97994.17
2018-02-14T07:55:19.229Z,97997.84
2018-02-14T07:56:22.106Z,97994.30
2018-02-14T07:57:25.057Z,98001.60
2018-02-14T07:58:27.999Z,98003.28
2018-02-14T07:59:31.209Z,98001.25
2018-02-14T08:00:34.221Z,98011.55
2018-02-14T08:01:37.145Z,98006.73
2018-02-14T08:02:40.063Z,98015.13
2018-02-14T08:03:43.041Z,98017.64
2018-02-14T08:04:45.961Z,98018.02
2018-02-14T08:05:49.132Z,98020.47
2018-02-14T08:06:51.990Z,98023.73
2018-02-14T08:07:54.836Z,98013.23
2018-02-14T08:08:57.673Z,98018.00
2018-02-14T08:10:00.606Z,98017.70
2018-02-14T08:11:03.616Z,98021.63
2018-02-14T08:12:06.867Z,98022.72
2018-02-14T08:13:09.855Z,98021.81
2018-02-14T08:14:12.815Z,98026.81
2018-02-14T08:15:15.780Z,98030.86
2018-02-14T08:16:18.736Z,98027.41
2018-02-14T08:17:21.731Z,98028.66
2018-02-14T08:18:25.008Z,98025.72
2018-02-14T08:19:27.942Z,98033.53
2018-02-14T08:20:30.933Z,98025.39
2018-02-14T08:21:33.869Z,98022.84
2018-02-14T08:22:36.774Z,98021.77
2018-02-14T08:23:39.690Z,98029.72
2018-02-14T08:24:42.881Z,98035.63
2018-02-14T08:25:45.879Z,98038.12
2018-02-14T08:26:48.788Z,98044.02
2018-02-14T08:27:51.703Z,98042.12
2018-02-14T08:28:54.635Z,98041.15
2018-02-14T08:29:57.506Z,98038.94
2018-02-14T08:31:01.109Z,98045.02
2018-02-14T08:32:04.098Z,98044.46
2018-02-14T08:33:07.002Z,98035.42
2018-02-14T08:34:09.897Z,98040.84
2018-02-14T08:35:12.785Z,98044.39
2018-02-14T08:36:15.644Z,98050.88
2018-02-14T08:37:19.204Z,98053.80
2018-02-14T08:38:22.120Z,98058.37
2018-02-14T08:39:25.104Z,98060.08
2018-02-14T08:40:28.096Z,98064.56
2018-02-14T08:41:31.067Z,98066.55
2018-02-14T08:42:34.339Z,98069.23
2018-02-14T08:43:37.276Z,98065.79
2018-02-14T08:44:40.218Z,98062.22
2018-02-14T08:45:43.211Z,98065.79
2018-02-14T08:46:46.167Z,98066.09
2018-02-14T08:47:49.119Z,98070.17
2018-02-14T08:48:52.474Z,98057.08
2018-02-14T08:49:55.436Z,98068.30
2018-02-14T08:50:58.405Z,98064.17
2018-02-14T08:52:01.410Z,98062.62
2018-02-14T08:53:04.460Z,98065.83
2018-02-14T08:54:07.415Z,98062.05
2018-02-14T08:55:10.760Z,98058.59
2018-02-14T08:56:13.824Z,98063.70
2018-02-14T08:57:16.838Z,98075.52
2018-02-14T08:58:19.780Z,98069.77
2018-02-14T08:59:22.785Z,98076.74
2018-02-14T09:00:25.771Z,98069.88
2018-02-14T09:01:29.005Z,98071.25
2018-02-14T09:02:31.953Z,98073.52
2018-02-14T09:03:35.091Z,98074.48
2018-02-14T09:04:38.048Z,98079.56
2018-02-14T09:05:41.065Z,98080.30
2018-02-14T09:06:44.110Z,98088.64
2018-02-14T09:07:47.385Z,98087.84
2018-02-14T09:08:50.308Z,98085.02
2018-02-14T09:09:53.287Z,98081.27
2018-02-14T09:10:56.253Z,98080.45
2018-02-14T09:11:59.208Z,98084.59
2018-02-14T09:13:02.110Z,98087.09
2018-02-14T09:14:05.405Z,98083.32
2018-02-14T09:15:08.368Z,98090.75
2018-02-14T09:16:11.193Z,98087.05
2018-02-14T09:17:14.062Z,98095.24
2018-02-14T09:18:16.903Z,98094.77
2018-02-14T09:19:19.812Z,98089.01
2018-02-14T09:20:23.196Z,98088.23
2018-02-14T09:21:26.020Z,98084.53
2018-02-14T09:22:28.994Z,98077.21
2018-02-14T09:23:32.016Z,98084.66
2018-02-14T09:24:34.969Z,98089.56
2018-02-14T09:25:37.919Z,98096.36
2018-02-14T09:26:41.298Z,98094.33
2018-02-14T09:27:44.254Z,98096.95
2018-02-14T09:28:47.286Z,98092.83
2018-02-14T09:29:50.206Z,98110.41
2018-02-14T09:30:53.446Z,98106.52
2018-02-14T09:31:56.397Z,98112.18
2018-02-14T09:32:59.454Z,98123.89
2018-02-14T09:34:02.396Z,98122.54
2018-02-14T09:35:05.404Z,98122.56
2018-02-14T09:36:08.350Z,98123.11
2018-02-14T09:37:11.369Z,98121.27
2018-02-14T09:38:14.749Z,98120.99
2018-02-14T09:39:17.679Z,98123.64
2018-02-14T09:40:20.672Z,98120.20
2018-02-14T09:41:23.597Z,98120.46
2018-02-14T09:42:26.545Z,98124.83
2018-02-14T09:43:29.520Z,98125.15
2018-02-14T09:44:32.445Z,98122.56
2018-02-14T09:45:35.369Z,98120.48
2018-02-14T09:46:38.425Z,98115.12
2018-02-14T09:47:41.395Z,98115.23
2018-02-14T09:48:44.468Z,98119.80
2018-02-14T09:49:47.757Z,98118.55
2018-02-14T09:50:50.716Z,98106.75
2018-02-14T09:51:53.653Z,98129.28
2018-02-14T09:52:56.614Z,98123.83
2018-02-14T09:53:59.556Z,98128.00
2018-02-14T09:55:02.492Z,98126.59
2018-02-14T09:56:05.715Z,98124.34
2018-02-14T09:57:08.646Z,98124.70
2018-02-14T09:58:11.585Z,98121.86
2018-02-14T09:59:14.544Z,98131.72
2018-02-14T10:00:17.493Z,98121.25
2018-02-14T10:01:20.428Z,98120.34
2018-02-14T10:02:23.719Z,98113.41
2018-02-14T10:03:26.700Z,98112.56
2018-02-14T10:04:29.656Z,98112.98
2018-02-14T10:05:32.588Z,98117.30
2018-02-14T10:06:35.581Z,98111.85
2018-02-14T10:07:38.561Z,98105.83
2018-02-14T10:08:42.001Z,98108.17
2018-02-14T10:09:44.951Z,98105.53
2018-02-14T10:10:47.898Z,98118.09
2018-02-14T10:11:50.879Z,98116.14
2018-02-14T10:12:53.837Z,98130.02
2018-02-14T10:13:56.877Z,98111.40
2018-02-14T10:15:00.099Z,98119.45
2018-02-14T10:16:03.061Z,98110.04
2018-02-14T10:17:08.623Z,98112.66
2018-02-14T10:18:11.584Z,98118.99
2018-02-14T10:19:14.620Z,98109.46
2018-02-14T10:20:17.515Z,98120.50
2018-02-14T10:21:20.751Z,98114.52
2018-02-14T10:22:23.710Z,98119.27
2018-02-14T10:23:26.713Z,98122.14
2018-02-14T10:24:30.916Z,98118.10
2018-02-14T10:25:33.892Z,98122.67
2018-02-14T10:26:37.660Z,98118.65
2018-02-14T10:27:40.894Z,98115.14
2018-02-14T10:28:43.848Z,98117.33
2018-02-14T10:29:46.781Z,98120.39
2018-02-14T10:30:49.765Z,98116.30
2018-02-14T10:31:52.816Z,98117.70
2018-02-14T10:32:55.755Z,98117.03
2018-02-14T10:33:59.095Z,98118.32
2018-02-14T10:35:02.098Z,98115.48
2018-02-14T10:36:05.112Z,98112.51
2018-02-14T10:37:08.049Z,98115.61
2018-02-14T10:38:11.033Z,98115.91
2018-02-14T10:39:13.973Z,98112.31
2018-02-14T10:40:17.414Z,98116.83
2018-02-14T10:41:20.397Z,98117.02
2018-02-14T10:42:23.370Z,98122.87
2018-02-14T10:43:26.323Z,98124.01
2018-02-14T10:44:29.305Z,98124.23
2018-02-14T10:45:32.303Z,98116.20
2018-02-14T10:46:35.682Z,98119.82
2018-02-14T10:47:38.637Z,98117.05
2018-02-14T10:48:41.822Z,98114.03
2018-02-14T10:49:44.699Z,98116.77
2018-02-14T10:50:47.810Z,98124.98
2018-02-14T10:51:50.717Z,98117.30
2018-02-14T10:52:54.048Z,98115.52
2018-02-14T10:53:57.005Z,98103.89
2018-02-14T10:54:59.907Z,98107.39
2018-02-14T10:56:02.888Z,98101.97
2018-02-14T10:57:05.849Z,98107.50
2018-02-14T10:58:08.778Z,98107.32
2018-02-14T10:59:12.158Z,98104.48
2018-02-14T11:00:15.252Z,98102.73
2018-02-14T11:01:22.140Z,98108.72
2018-02-14T11:02:26.794Z,98102.34
2018-02-14T11:03:33.807Z,98101.41
2018-02-14T11:04:41.044Z,98104.77
2018-02-14T11:05:47.898Z,98106.23
2018-02-14T11:06:50.811Z,98116.69
2018-02-14T11:07:53.706Z,98109.91
2018-02-14T11:08:56.666Z,98108.17
2018-02-14T11:09:59.919Z,98110.41
2018-02-14T11:11:03.325Z,98112.39
2018-02-14T11:12:06.257Z,98109.55
2018-02-14T11:13:09.269Z,98106.88
2018-02-14T11:14:12.271Z,98114.98
2018-02-14T11:15:15.207Z,98115.16
2018-02-14T11:16:18.146Z,98110.50
2018-02-14T11:17:21.370Z,98103.14
2018-02-14T11:18:24.300Z,98116.86
2018-02-14T11:19:27.266Z,98116.45
2018-02-14T11:20:30.881Z,98118.25
2018-02-14T11:21:33.791Z,98127.33
2018-02-14T11:22:36.808Z,98120.06
2018-02-14T11:23:40.019Z,98121.17
2018-02-14T11:24:42.957Z,98121.74
2018-02-14T11:25:45.855Z,98126.08
2018-02-14T11:26:48.789Z,98120.78
2018-02-14T11:27:51.782Z,98120.33
2018-02-14T11:28:54.836Z,98116.03
2018-02-14T11:29:58.171Z,98128.68
2018-02-14T11:31:01.079Z,98125.64
2018-02-14T11:32:04.639Z,98116.42
2018-02-14T11:33:07.571Z,98105.09
2018-02-14T11:34:10.627Z,98117.67
2018-02-14T11:35:13.604Z,98119.16
2018-02-14T11:36:17.037Z,98117.42
2018-02-14T11:37:20.005Z,98129.08
2018-02-14T11:38:23.005Z,98118.45
2018-02-14T11:39:26.056Z,98115.74
2018-02-14T11:40:29.011Z,98121.94
2018-02-14T11:41:32.027Z,98113.98
2018-02-14T11:42:35.530Z,98122.91
2018-02-14T11:43:38.555Z,98110.70
2018-02-14T11:44:41.511Z,98131.81
2018-02-14T11:45:44.450Z,98118.22
2018-02-14T11:46:47.385Z,98115.53
2018-02-14T11:47:50.372Z,98120.53
2018-02-14T11:48:53.733Z,98120.77
2018-02-14T11:49:56.764Z,98122.90
2018-02-14T11:50:59.728Z,98137.94
2018-02-14T11:52:02.712Z,98132.48
2018-02-14T11:53:05.663Z,98117.02
2018-02-14T11:54:08.997Z,98125.95
2018-02-14T11:55:12.175Z,98123.86
2018-02-14T11:56:15.766Z,98124.80
2018-02-14T11:57:18.639Z,98123.86
2018-02-14T11:58:21.657Z,98119.02
2018-02-14T11:59:25.117Z,98117.84
2018-02-14T12:00:28.064Z,98122.83
2018-02-14T12:01:32.209Z,98119.73
2018-02-14T12:02:35.238Z,98119.02
2018-02-14T12:03:38.248Z,98097.69
2018-02-14T12:04:41.212Z,98123.64
2018-02-14T12:05:44.190Z,98117.47
2018-02-14T12:06:47.059Z,98112.24
2018-02-14T12:07:50.360Z,98119.20
2018-02-14T12:08:53.233Z,98120.16
2018-02-14T12:09:56.105Z,98115.31
2018-02-14T12:10:58.988Z,98122.66
2018-02-14T12:12:01.882Z,98132.30
2018-02-14T12:13:04.736Z,98124.83
2018-02-14T12:14:07.989Z,98136.41
2018-02-14T12:15:11.084Z,98132.13
2018-02-14T12:16:14.102Z,98118.96
2018-02-14T12:17:17.065Z,98113.41
2018-02-14T12:18:20.132Z,98110.88
2018-02-14T12:19:22.988Z,98104.89
2018-02-14T12:20:26.400Z,98101.22